sensor_id;sensor_type;location;lat;lon;timestamp;pressure;altitude;pressure_sealevel;temperature;humidity
21869;BME280;11099;41.564;23.296;2023-10-19T00:01:57;97765.31;;;12.49;nan
21869;BME280;11099;41.564;23.296;2023-10-19T00:04:24;97750.19;;;12.27;nan
21869;BME280;11099;41.564;23.296;2023-10-19T00:06:50;97774.91;;;12.67;nan
21869;BME280;11099;41.564;23.296;2023-10-19T00:09:16;97771.00;;;12.73;nan
21869;BME280;11099;41.564;23.296;2023-10-19T00:11:41;97808.72;;;12.80;nan
21869;BME280;11099;41.564;23.296;2023-10-19T00:14:07;97831.22;;;12.88;nan
21869;BME280;11099;41.564;23.296;2023-10-19T00:16:46;97752.91;;;12.53;nan
21869;BME280;11099;41.564;23.296;2023-10-19T00:19:26;97773.78;;;12.51;nan
21869;BME280;11099;41.564;23.296;2023-10-19T00:21:54;97837.22;;;13.19;nan
21869;BME280;11099;41.564;23.296;2023-10-19T00:24:34;97781.38;;;12.83;nan
21869;BME280;11099;41.564;23.296;2023-10-19T00:27:01;97801.34;;;13.03;nan
21869;BME280;11099;41.564;23.296;2023-10-19T00:29:46;97806.56;;;12.34;nan
21869;BME280;11099;41.564;23.296;2023-10-19T00:32:16;97742.75;;;11.98;nan
21869;BME280;11099;41.564;23.296;2023-10-19T00:34:43;97824.41;;;12.64;nan
21869;BME280;11099;41.564;23.296;2023-10-19T00:37:18;97739.19;;;12.28;nan
21869;BME280;11099;41.564;23.296;2023-10-19T00:39:51;97740.34;;;11.88;nan
21869;BME280;11099;41.564;23.296;2023-10-19T00:42:20;97766.72;;;11.67;nan
21869;BME280;11099;41.564;23.296;2023-10-19T00:44:50;97777.66;;;11.56;nan
21869;BME280;11099;41.564;23.296;2023-10-19T00:47:16;97819.78;;;11.99;nan
21869;BME280;11099;41.564;23.296;2023-10-19T00:49:47;97753.34;;;11.58;nan
21869;BME280;11099;41.564;23.296;2023-10-19T00:52:14;97750.94;;;11.79;nan
21869;BME280;11099;41.564;23.296;2023-10-19T00:54:49;97756.91;;;11.22;nan
21869;BME280;11099;41.564;23.296;2023-10-19T00:57:19;97748.28;;;11.03;nan
21869;BME280;11099;41.564;23.296;2023-10-19T00:59:46;97790.91;;;11.70;nan
21869;BME280;11099;41.564;23.296;2023-10-19T01:02:18;97750.47;;;11.23;nan
21869;BME280;11099;41.564;23.296;2023-10-19T01:04:48;97688.13;;;10.57;nan
21869;BME280;11099;41.564;23.296;2023-10-19T01:07:30;97768.03;;;11.47;nan
21869;BME280;11099;41.564;23.296;2023-10-19T01:10:01;97730.81;;;11.11;nan
21869;BME280;11099;41.564;23.296;2023-10-19T01:12:46;97745.38;;;11.13;nan
21869;BME280;11099;41.564;23.296;2023-10-19T01:15:14;97793.88;;;11.69;nan
21869;BME280;11099;41.564;23.296;2023-10-19T01:17:48;97786.16;;;11.90;nan
21869;BME280;11099;41.564;23.296;2023-10-19T01:20:20;97773.28;;;11.92;nan
21869;BME280;11099;41.564;23.296;2023-10-19T01:22:53;97794.88;;;12.04;nan
21869;BME280;11099;41.564;23.296;2023-10-19T01:25:20;97798.91;;;11.93;nan
21869;BME280;11099;41.564;23.296;2023-10-19T01:28:01;97753.09;;;11.99;nan
21869;BME280;11099;41.564;23.296;2023-10-19T01:30:33;97729.22;;;11.63;nan
21869;BME280;11099;41.564;23.296;2023-10-19T01:32:59;97770.91;;;12.30;nan
21869;BME280;11099;41.564;23.296;2023-10-19T01:35:25;97756.91;;;12.24;nan
21869;BME280;11099;41.564;23.296;2023-10-19T01:37:52;97718.44;;;12.17;nan
21869;BME280;11099;41.564;23.296;2023-10-19T01:40:17;97750.50;;;12.25;nan
21869;BME280;11099;41.564;23.296;2023-10-19T01:42:46;97764.41;;;12.71;nan
21869;BME280;11099;41.564;23.296;2023-10-19T01:45:12;97724.66;;;12.69;nan
21869;BME280;11099;41.564;23.296;2023-10-19T01:47:37;97702.81;;;12.58;nan
21869;BME280;11099;41.564;23.296;2023-10-19T01:50:06;97746.66;;;12.83;nan
21869;BME280;11099;41.564;23.296;2023-10-19T01:52:33;97729.81;;;12.57;nan
21869;BME280;11099;41.564;23.296;2023-10-19T01:54:58;97779.66;;;12.70;nan
21869;BME280;11099;41.564;23.296;2023-10-19T01:57:33;97721.28;;;12.20;nan
21869;BME280;11099;41.564;23.296;2023-10-19T02:00:00;97759.38;;;12.86;nan
21869;BME280;11099;41.564;23.296;2023-10-19T02:02:35;97744.94;;;12.87;nan
21869;BME280;11099;41.564;23.296;2023-10-19T02:05:01;97755.13;;;12.77;nan
21869;BME280;11099;41.564;23.296;2023-10-19T02:07:30;97746.16;;;12.55;nan
21869;BME280;11099;41.564;23.296;2023-10-19T02:09:56;97730.28;;;12.50;nan
21869;BME280;11099;41.564;23.296;2023-10-19T02:12:21;97715.81;;;12.34;nan
21869;BME280;11099;41.564;23.296;2023-10-19T02:14:48;97713.28;;;12.29;nan
21869;BME280;11099;41.564;23.296;2023-10-19T02:17:13;97790.50;;;12.82;nan
21869;BME280;11099;41.564;23.296;2023-10-19T02:19:40;97720.06;;;12.52;nan
21869;BME280;11099;41.564;23.296;2023-10-19T02:22:05;97728.91;;;12.87;nan
21869;BME280;11099;41.564;23.296;2023-10-19T02:24:37;97783.88;;;13.40;nan
21869;BME280;11099;41.564;23.296;2023-10-19T02:27:04;97738.47;;;13.14;nan
21869;BME280;11099;41.564;23.296;2023-10-19T02:29:30;97745.06;;;13.08;nan
21869;BME280;11099;41.564;23.296;2023-10-19T02:31:56;97752.00;;;12.83;nan
21869;BME280;11099;41.564;23.296;2023-10-19T02:34:22;97715.84;;;12.60;nan
21869;BME280;11099;41.564;23.296;2023-10-19T02:36:48;97748.03;;;12.55;nan
21869;BME280;11099;41.564;23.296;2023-10-19T02:39:14;97588.59;;;11.86;nan
21869;BME280;11099;41.564;23.296;2023-10-19T02:41:42;97723.31;;;12.15;nan
21869;BME280;11099;41.564;23.296;2023-10-19T02:44:19;97730.59;;;12.40;nan
21869;BME280;11099;41.564;23.296;2023-10-19T02:46:54;97741.94;;;12.72;nan
21869;BME280;11099;41.564;23.296;2023-10-19T02:49:24;97631.69;;;11.79;nan
21869;BME280;11099;41.564;23.296;2023-10-19T02:51:52;97781.41;;;12.92;nan
21869;BME280;11099;41.564;23.296;2023-10-19T02:54:22;97797.22;;;12.80;nan
21869;BME280;11099;41.564;23.296;2023-10-19T02:56:51;97799.47;;;13.04;nan
21869;BME280;11099;41.564;23.296;2023-10-19T02:59:19;97820.69;;;13.09;nan
21869;BME280;11099;41.564;23.296;2023-10-19T03:01:52;97797.56;;;13.13;nan
21869;BME280;11099;41.564;23.296;2023-10-19T03:04:18;97799.47;;;13.12;nan
21869;BME280;11099;41.564;23.296;2023-10-19T03:06:45;97721.78;;;12.39;nan
21869;BME280;11099;41.564;23.296;2023-10-19T03:09:10;97824.69;;;12.54;nan
21869;BME280;11099;41.564;23.296;2023-10-19T03:11:43;97796.34;;;12.27;nan
21869;BME280;11099;41.564;23.296;2023-10-19T03:14:10;97776.25;;;12.30;nan
21869;BME280;11099;41.564;23.296;2023-10-19T03:16:39;97652.47;;;11.82;nan
21869;BME280;11099;41.564;23.296;2023-10-19T03:19:08;97798.66;;;12.77;nan
21869;BME280;11099;41.564;23.296;2023-10-19T03:21:34;97570.22;;;11.76;nan
21869;BME280;11099;41.564;23.296;2023-10-19T03:24:08;97765.34;;;13.09;nan
21869;BME280;11099;41.564;23.296;2023-10-19T03:27:11;97756.41;;;12.88;nan
21869;BME280;11099;41.564;23.296;2023-10-19T03:29:58;97751.34;;;12.95;nan
21869;BME280;11099;41.564;23.296;2023-10-19T03:32:25;97759.25;;;12.91;nan
21869;BME280;11099;41.564;23.296;2023-10-19T03:34:57;97795.41;;;13.32;nan
21869;BME280;11099;41.564;23.296;2023-10-19T03:37:26;97742.06;;;13.01;nan
21869;BME280;11099;41.564;23.296;2023-10-19T03:39:54;97781.56;;;13.30;nan
21869;BME280;11099;41.564;23.296;2023-10-19T03:42:24;97751.84;;;13.14;nan
21869;BME280;11099;41.564;23.296;2023-10-19T03:45:07;97644.69;;;12.55;nan
21869;BME280;11099;41.564;23.296;2023-10-19T03:47:38;97779.66;;;13.39;nan
21869;BME280;11099;41.564;23.296;2023-10-19T03:50:05;97654.09;;;12.61;nan
21869;BME280;11099;41.564;23.296;2023-10-19T03:52:40;97759.97;;;13.18;nan
21869;BME280;11099;41.564;23.296;2023-10-19T03:55:06;97774.94;;;13.28;nan
21869;BME280;11099;41.564;23.296;2023-10-19T03:57:37;97660.53;;;12.34;nan
21869;BME280;11099;41.564;23.296;2023-10-19T04:00:08;97553.25;;;11.80;nan
21869;BME280;11099;41.564;23.296;2023-10-19T04:02:41;97646.88;;;12.36;nan
21869;BME280;11099;41.564;23.296;2023-10-19T04:05:08;97750.72;;;13.07;nan
21869;BME280;11099;41.564;23.296;2023-10-19T04:07:40;97756.41;;;12.71;nan
21869;BME280;11099;41.564;23.296;2023-10-19T04:10:07;97783.88;;;12.71;nan
21869;BME280;11099;41.564;23.296;2023-10-19T04:12:42;97712.16;;;12.04;nan
21869;BME280;11099;41.564;23.296;2023-10-19T04:15:08;97716.44;;;12.31;nan
21869;BME280;11099;41.564;23.296;2023-10-19T04:17:48;97720.28;;;11.99;nan
21869;BME280;11099;41.564;23.296;2023-10-19T04:20:18;97755.44;;;12.01;nan
21869;BME280;11099;41.564;23.296;2023-10-19T04:25:09;97755.03;;;12.16;nan
21869;BME280;11099;41.564;23.296;2023-10-19T04:27:40;97731.75;;;12.08;nan
21869;BME280;11099;41.564;23.296;2023-10-19T04:30:11;97770.63;;;12.40;nan
21869;BME280;11099;41.564;23.296;2023-10-19T04:32:50;97746.38;;;12.19;nan
21869;BME280;11099;41.564;23.296;2023-10-19T04:35:16;97782.63;;;12.60;nan
21869;BME280;11099;41.564;23.296;2023-10-19T04:37:49;97764.28;;;12.10;nan
21869;BME280;11099;41.564;23.296;2023-10-19T04:40:16;97791.19;;;12.31;nan
21869;BME280;11099;41.564;23.296;2023-10-19T04:42:42;97775.81;;;11.88;nan
21869;BME280;11099;41.564;23.296;2023-10-19T04:45:07;97791.56;;;12.55;nan
21869;BME280;11099;41.564;23.296;2023-10-19T04:47:34;97776.34;;;12.73;nan
21869;BME280;11099;41.564;23.296;2023-10-19T04:50:04;97650.94;;;12.07;nan
21869;BME280;11099;41.564;23.296;2023-10-19T04:52:31;97762.81;;;12.78;nan
21869;BME280;11099;41.564;23.296;2023-10-19T04:54:57;97786.25;;;13.07;nan
21869;BME280;11099;41.564;23.296;2023-10-19T04:57:22;97782.63;;;13.21;nan
21869;BME280;11099;41.564;23.296;2023-10-19T04:59:48;97715.81;;;12.51;nan
21869;BME280;11099;41.564;23.296;2023-10-19T05:02:14;97794.72;;;13.18;nan
21869;BME280;11099;41.564;23.296;2023-10-19T05:04:40;97800.91;;;13.27;nan
21869;BME280;11099;41.564;23.296;2023-10-19T05:07:09;97755.38;;;12.40;nan
21869;BME280;11099;41.564;23.296;2023-10-19T05:09:38;97824.28;;;13.13;nan
21869;BME280;11099;41.564;23.296;2023-10-19T05:12:06;97799.94;;;13.14;nan
21869;BME280;11099;41.564;23.296;2023-10-19T05:14:37;97801.66;;;12.93;nan
21869;BME280;11099;41.564;23.296;2023-10-19T05:17:03;97801.06;;;13.13;nan
21869;BME280;11099;41.564;23.296;2023-10-19T05:19:36;97725.59;;;12.73;nan
21869;BME280;11099;41.564;23.296;2023-10-19T05:22:04;97793.19;;;13.08;nan
21869;BME280;11099;41.564;23.296;2023-10-19T05:24:31;97753.69;;;12.62;nan
21869;BME280;11099;41.564;23.296;2023-10-19T05:26:57;97448.94;;;10.73;nan
21869;BME280;11099;41.564;23.296;2023-10-19T05:29:23;97671.38;;;12.21;nan
21869;BME280;11099;41.564;23.296;2023-10-19T05:31:50;97799.31;;;12.91;nan
21869;BME280;11099;41.564;23.296;2023-10-19T05:34:20;97781.22;;;13.14;nan
21869;BME280;11099;41.564;23.296;2023-10-19T05:36:45;97751.50;;;13.07;nan
21869;BME280;11099;41.564;23.296;2023-10-19T05:39:14;97774.94;;;13.19;nan
21869;BME280;11099;41.564;23.296;2023-10-19T05:41:40;97765.19;;;13.06;nan
21869;BME280;11099;41.564;23.296;2023-10-19T05:44:06;97779.06;;;13.25;nan
21869;BME280;11099;41.564;23.296;2023-10-19T05:46:31;97666.38;;;12.36;nan
21869;BME280;11099;41.564;23.296;2023-10-19T05:48:57;97799.00;;;13.45;nan
21869;BME280;11099;41.564;23.296;2023-10-19T05:51:23;97711.13;;;12.65;nan
21869;BME280;11099;41.564;23.296;2023-10-19T05:53:50;97810.03;;;13.26;nan
21869;BME280;11099;41.564;23.296;2023-10-19T05:56:16;97810.00;;;13.43;nan
21869;BME280;11099;41.564;23.296;2023-10-19T05:58:43;97829.16;;;12.85;nan
21869;BME280;11099;41.564;23.296;2023-10-19T06:01:10;97787.97;;;12.60;nan
21869;BME280;11099;41.564;23.296;2023-10-19T06:03:35;97730.22;;;12.24;nan
21869;BME280;11099;41.564;23.296;2023-10-19T06:06:01;97757.66;;;12.64;nan
21869;BME280;11099;41.564;23.296;2023-10-19T06:08:26;97740.78;;;12.47;nan
21869;BME280;11099;41.564;23.296;2023-10-19T06:10:54;97809.22;;;13.34;nan
21869;BME280;11099;41.564;23.296;2023-10-19T06:13:20;97601.41;;;11.75;nan
21869;BME280;11099;41.564;23.296;2023-10-19T06:15:48;97672.19;;;12.47;nan
21869;BME280;11099;41.564;23.296;2023-10-19T06:18:14;97698.56;;;12.83;nan
21869;BME280;11099;41.564;23.296;2023-10-19T06:20:46;97821.59;;;13.82;nan
21869;BME280;11099;41.564;23.296;2023-10-19T06:23:12;97765.50;;;12.96;nan
21869;BME280;11099;41.564;23.296;2023-10-19T06:25:38;97819.28;;;13.11;nan
21869;BME280;11099;41.564;23.296;2023-10-19T06:28:04;97640.75;;;12.35;nan
21869;BME280;11099;41.564;23.296;2023-10-19T06:30:31;97806.38;;;13.48;nan
21869;BME280;11099;41.564;23.296;2023-10-19T06:32:58;97616.75;;;12.53;nan
21869;BME280;11099;41.564;23.296;2023-10-19T06:35:29;97751.13;;;13.61;nan
21869;BME280;11099;41.564;23.296;2023-10-19T06:37:57;97828.03;;;13.73;nan
21869;BME280;11099;41.564;23.296;2023-10-19T06:40:24;97826.25;;;14.03;nan
21869;BME280;11099;41.564;23.296;2023-10-19T06:42:54;97825.19;;;13.78;nan
21869;BME280;11099;41.564;23.296;2023-10-19T06:45:20;97521.72;;;11.74;nan
21869;BME280;11099;41.564;23.296;2023-10-19T06:47:48;97791.94;;;14.34;nan
21869;BME280;11099;41.564;23.296;2023-10-19T06:50:16;97835.38;;;14.48;nan
21869;BME280;11099;41.564;23.296;2023-10-19T06:52:42;97643.72;;;13.50;nan
21869;BME280;11099;41.564;23.296;2023-10-19T06:55:09;97808.06;;;14.85;nan
21869;BME280;11099;41.564;23.296;2023-10-19T06:57:44;97710.41;;;14.53;nan
21869;BME280;11099;41.564;23.296;2023-10-19T07:00:12;97803.59;;;14.89;nan
21869;BME280;11099;41.564;23.296;2023-10-19T07:02:50;97829.53;;;14.76;nan
21869;BME280;11099;41.564;23.296;2023-10-19T07:05:17;97828.19;;;15.33;nan
21869;BME280;11099;41.564;23.296;2023-10-19T07:07:44;97809.81;;;15.01;nan
21869;BME280;11099;41.564;23.296;2023-10-19T07:10:11;97819.97;;;15.17;nan
21869;BME280;11099;41.564;23.296;2023-10-19T07:12:40;97828.19;;;15.33;nan
21869;BME280;11099;41.564;23.296;2023-10-19T07:15:08;97803.81;;;15.59;nan
21869;BME280;11099;41.564;23.296;2023-10-19T07:17:37;97681.91;;;14.48;nan
21869;BME280;11099;41.564;23.296;2023-10-19T07:20:04;97729.16;;;14.94;nan
21869;BME280;11099;41.564;23.296;2023-10-19T07:22:35;97790.69;;;15.66;nan
21869;BME280;11099;41.564;23.296;2023-10-19T07:25:05;97769.44;;;15.73;nan
21869;BME280;11099;41.564;23.296;2023-10-19T07:27:32;97755.69;;;15.87;nan
21869;BME280;11099;41.564;23.296;2023-10-19T07:30:00;97752.16;;;15.62;nan
21869;BME280;11099;41.564;23.296;2023-10-19T07:32:26;97745.03;;;15.33;nan
21869;BME280;11099;41.564;23.296;2023-10-19T07:34:53;97805.81;;;15.83;nan
21869;BME280;11099;41.564;23.296;2023-10-19T07:37:20;97809.72;;;15.97;nan
21869;BME280;11099;41.564;23.296;2023-10-19T07:39:47;97874.69;;;16.36;nan
21869;BME280;11099;41.564;23.296;2023-10-19T07:42:14;97764.09;;;16.34;nan
21869;BME280;11099;41.564;23.296;2023-10-19T07:44:40;97833.50;;;16.44;nan
21869;BME280;11099;41.564;23.296;2023-10-19T07:47:06;97838.88;;;16.81;nan
21869;BME280;11099;41.564;23.296;2023-10-19T07:49:35;97667.00;;;15.95;nan
21869;BME280;11099;41.564;23.296;2023-10-19T07:52:07;97773.56;;;16.68;nan
21869;BME280;11099;41.564;23.296;2023-10-19T07:54:37;97814.19;;;17.44;nan
21869;BME280;11099;41.564;23.296;2023-10-19T07:57:03;97775.66;;;17.27;nan
21869;BME280;11099;41.564;23.296;2023-10-19T07:59:32;97802.66;;;18.19;nan
21869;BME280;11099;41.564;23.296;2023-10-19T08:01:59;97766.69;;;18.11;nan
21869;BME280;11099;41.564;23.296;2023-10-19T08:04:30;97814.44;;;18.46;nan
21869;BME280;11099;41.564;23.296;2023-10-19T08:06:58;97781.53;;;18.87;nan
21869;BME280;11099;41.564;23.296;2023-10-19T08:09:28;97754.09;;;17.99;nan
21869;BME280;11099;41.564;23.296;2023-10-19T08:11:57;97783.63;;;17.96;nan
21869;BME280;11099;41.564;23.296;2023-10-19T08:14:25;97807.94;;;18.47;nan
21869;BME280;11099;41.564;23.296;2023-10-19T08:16:52;97785.34;;;18.35;nan
21869;BME280;11099;41.564;23.296;2023-10-19T08:19:18;97798.25;;;18.61;nan
21869;BME280;11099;41.564;23.296;2023-10-19T08:21:45;97810.56;;;18.11;nan
21869;BME280;11099;41.564;23.296;2023-10-19T08:24:11;97673.81;;;16.98;nan
21869;BME280;11099;41.564;23.296;2023-10-19T08:26:44;97775.00;;;17.74;nan
21869;BME280;11099;41.564;23.296;2023-10-19T08:29:13;97809.25;;;18.53;nan
21869;BME280;11099;41.564;23.296;2023-10-19T08:31:42;97807.38;;;18.73;nan
21869;BME280;11099;41.564;23.296;2023-10-19T08:34:10;97803.75;;;18.65;nan
21869;BME280;11099;41.564;23.296;2023-10-19T08:36:37;97794.47;;;18.47;nan
21869;BME280;11099;41.564;23.296;2023-10-19T08:39:09;97816.47;;;18.49;nan
21869;BME280;11099;41.564;23.296;2023-10-19T08:41:37;97796.97;;;18.55;nan
21869;BME280;11099;41.564;23.296;2023-10-19T08:44:08;97821.13;;;18.83;nan
21869;BME280;11099;41.564;23.296;2023-10-19T08:46:44;97780.00;;;18.71;nan
21869;BME280;11099;41.564;23.296;2023-10-19T08:49:15;97786.31;;;18.62;nan
21869;BME280;11099;41.564;23.296;2023-10-19T08:51:45;97770.66;;;18.33;nan
21869;BME280;11099;41.564;23.296;2023-10-19T08:54:13;97805.16;;;18.59;nan
21869;BME280;11099;41.564;23.296;2023-10-19T08:56:40;97724.03;;;18.48;nan
21869;BME280;11099;41.564;23.296;2023-10-19T08:59:08;97799.16;;;19.59;nan
21869;BME280;11099;41.564;23.296;2023-10-19T09:01:36;97746.78;;;19.63;nan
21869;BME280;11099;41.564;23.296;2023-10-19T09:04:03;97771.63;;;19.53;nan
21869;BME280;11099;41.564;23.296;2023-10-19T09:06:37;97738.34;;;19.26;nan
21869;BME280;11099;41.564;23.296;2023-10-19T09:09:14;97790.22;;;19.78;nan
21869;BME280;11099;41.564;23.296;2023-10-19T09:11:46;97789.34;;;19.93;nan
21869;BME280;11099;41.564;23.296;2023-10-19T09:14:12;97797.00;;;19.68;nan
21869;BME280;11099;41.564;23.296;2023-10-19T09:16:53;97785.06;;;19.92;nan
21869;BME280;11099;41.564;23.296;2023-10-19T09:19:43;97761.53;;;19.69;nan
21869;BME280;11099;41.564;23.296;2023-10-19T09:22:10;97734.78;;;19.41;nan
21869;BME280;11099;41.564;23.296;2023-10-19T09:24:48;97676.13;;;19.84;nan
21869;BME280;11099;41.564;23.296;2023-10-19T09:27:22;97783.38;;;20.30;nan
21869;BME280;11099;41.564;23.296;2023-10-19T09:29:49;97765.59;;;20.29;nan
21869;BME280;11099;41.564;23.296;2023-10-19T09:32:18;97672.16;;;20.05;nan
21869;BME280;11099;41.564;23.296;2023-10-19T09:34:45;97664.25;;;19.66;nan
21869;BME280;11099;41.564;23.296;2023-10-19T09:37:14;97740.97;;;19.84;nan
21869;BME280;11099;41.564;23.296;2023-10-19T09:39:44;97767.00;;;19.73;nan
21869;BME280;11099;41.564;23.296;2023-10-19T09:42:13;97759.75;;;19.58;nan
21869;BME280;11099;41.564;23.296;2023-10-19T09:45:00;97653.16;;;18.48;nan
21869;BME280;11099;41.564;23.296;2023-10-19T09:47:34;97763.38;;;19.23;nan
21869;BME280;11099;41.564;23.296;2023-10-19T09:50:03;97734.09;;;19.06;nan
21869;BME280;11099;41.564;23.296;2023-10-19T09:52:33;97790.19;;;19.35;nan
21869;BME280;11099;41.564;23.296;2023-10-19T09:55:29;97767.59;;;19.05;nan
21869;BME280;11099;41.564;23.296;2023-10-19T09:58:19;97764.91;;;19.05;nan
21869;BME280;11099;41.564;23.296;2023-10-19T10:00:48;97754.41;;;18.80;nan
21869;BME280;11099;41.564;23.296;2023-10-19T10:03:45;97756.16;;;18.73;nan
21869;BME280;11099;41.564;23.296;2023-10-19T10:06:12;97720.03;;;18.42;nan
21869;BME280;11099;41.564;23.296;2023-10-19T10:08:41;97757.28;;;18.72;nan
21869;BME280;11099;41.564;23.296;2023-10-19T10:11:20;97726.31;;;18.65;nan
21869;BME280;11099;41.564;23.296;2023-10-19T10:13:46;97686.66;;;18.47;nan
21869;BME280;11099;41.564;23.296;2023-10-19T10:16:21;97666.13;;;18.42;nan
21869;BME280;11099;41.564;23.296;2023-10-19T10:18:48;97741.34;;;18.82;nan
21869;BME280;11099;41.564;23.296;2023-10-19T10:21:22;97726.22;;;18.62;nan
21869;BME280;11099;41.564;23.296;2023-10-19T10:26:22;97753.84;;;18.90;nan
21869;BME280;11099;41.564;23.296;2023-10-19T10:29:18;97704.84;;;18.69;nan
21869;BME280;11099;41.564;23.296;2023-10-19T10:31:50;97731.09;;;19.11;nan
21869;BME280;11099;41.564;23.296;2023-10-19T10:37:05;97706.47;;;19.55;nan
21869;BME280;11099;41.564;23.296;2023-10-19T10:39:33;97712.25;;;20.25;nan
21869;BME280;11099;41.564;23.296;2023-10-19T10:42:04;97632.28;;;19.68;nan
21869;BME280;11099;41.564;23.296;2023-10-19T10:44:44;97623.66;;;20.15;nan
21869;BME280;11099;41.564;23.296;2023-10-19T10:47:12;97688.97;;;20.44;nan
21869;BME280;11099;41.564;23.296;2023-10-19T10:49:58;97701.34;;;20.75;nan
21869;BME280;11099;41.564;23.296;2023-10-19T10:52:30;97690.81;;;21.00;nan
21869;BME280;11099;41.564;23.296;2023-10-19T10:54:58;97681.03;;;20.88;nan
21869;BME280;11099;41.564;23.296;2023-10-19T10:57:31;97645.63;;;21.04;nan
21869;BME280;11099;41.564;23.296;2023-10-19T11:00:07;97662.88;;;20.92;nan
21869;BME280;11099;41.564;23.296;2023-10-19T11:02:40;97616.25;;;21.06;nan
21869;BME280;11099;41.564;23.296;2023-10-19T11:05:12;97615.00;;;20.96;nan
21869;BME280;11099;41.564;23.296;2023-10-19T11:07:40;97642.47;;;21.36;nan
21869;BME280;11099;41.564;23.296;2023-10-19T11:10:05;97569.81;;;20.63;nan
21869;BME280;11099;41.564;23.296;2023-10-19T11:12:31;97549.34;;;20.32;nan
21869;BME280;11099;41.564;23.296;2023-10-19T11:14:58;97542.00;;;20.29;nan
21869;BME280;11099;41.564;23.296;2023-10-19T11:17:25;97638.66;;;20.66;nan
21869;BME280;11099;41.564;23.296;2023-10-19T11:19:59;97604.31;;;20.43;nan
21869;BME280;11099;41.564;23.296;2023-10-19T11:22:29;97612.13;;;20.78;nan
21869;BME280;11099;41.564;23.296;2023-10-19T11:24:55;97635.06;;;20.92;nan
21869;BME280;11099;41.564;23.296;2023-10-19T11:27:41;97590.97;;;20.24;nan
21869;BME280;11099;41.564;23.296;2023-10-19T11:30:07;97622.69;;;20.91;nan
21869;BME280;11099;41.564;23.296;2023-10-19T11:32:38;97626.88;;;20.85;nan
21869;BME280;11099;41.564;23.296;2023-10-19T11:35:04;97569.28;;;20.20;nan
21869;BME280;11099;41.564;23.296;2023-10-19T11:37:53;97631.13;;;20.86;nan
21869;BME280;11099;41.564;23.296;2023-10-19T11:40:23;97570.81;;;20.18;nan
21869;BME280;11099;41.564;23.296;2023-10-19T11:42:49;97618.34;;;20.83;nan
21869;BME280;11099;41.564;23.296;2023-10-19T11:45:21;97592.53;;;20.92;nan
21869;BME280;11099;41.564;23.296;2023-10-19T11:47:50;97522.44;;;20.43;nan
21869;BME280;11099;41.564;23.296;2023-10-19T11:50:16;97617.16;;;21.17;nan
21869;BME280;11099;41.564;23.296;2023-10-19T11:52:45;97607.53;;;21.23;nan
21869;BME280;11099;41.564;23.296;2023-10-19T11:55:15;97601.91;;;21.02;nan
21869;BME280;11099;41.564;23.296;2023-10-19T11:57:44;97471.44;;;20.41;nan
21869;BME280;11099;41.564;23.296;2023-10-19T12:00:13;97590.66;;;20.96;nan
21869;BME280;11099;41.564;23.296;2023-10-19T12:02:40;97524.34;;;20.72;nan
21869;BME280;11099;41.564;23.296;2023-10-19T12:05:09;97619.69;;;21.40;nan
21869;BME280;11099;41.564;23.296;2023-10-19T12:07:38;97612.03;;;21.09;nan
21869;BME280;11099;41.564;23.296;2023-10-19T12:10:08;97606.88;;;20.96;nan
21869;BME280;11099;41.564;23.296;2023-10-19T12:12:49;97600.69;;;20.96;nan
21869;BME280;11099;41.564;23.296;2023-10-19T12:15:17;97542.94;;;20.44;nan
21869;BME280;11099;41.564;23.296;2023-10-19T12:17:44;97599.19;;;21.02;nan
21869;BME280;11099;41.564;23.296;2023-10-19T12:20:09;97555.69;;;20.81;nan
21869;BME280;11099;41.564;23.296;2023-10-19T12:22:39;97609.03;;;21.17;nan
21869;BME280;11099;41.564;23.296;2023-10-19T12:25:05;97578.03;;;21.11;nan
21869;BME280;11099;41.564;23.296;2023-10-19T12:27:31;97522.75;;;20.68;nan
21869;BME280;11099;41.564;23.296;2023-10-19T12:29:57;97585.63;;;20.95;nan
21869;BME280;11099;41.564;23.296;2023-10-19T12:32:32;97537.19;;;20.83;nan
21869;BME280;11099;41.564;23.296;2023-10-19T12:35:10;97601.41;;;21.30;nan
21869;BME280;11099;41.564;23.296;2023-10-19T12:37:38;97504.56;;;20.68;nan
21869;BME280;11099;41.564;23.296;2023-10-19T12:40:12;97591.81;;;21.36;nan
21869;BME280;11099;41.564;23.296;2023-10-19T12:42:56;97581.34;;;20.94;nan
21869;BME280;11099;41.564;23.296;2023-10-19T12:45:25;97544.53;;;20.86;nan
21869;BME280;11099;41.564;23.296;2023-10-19T12:47:53;97526.00;;;20.47;nan
21869;BME280;11099;41.564;23.296;2023-10-19T12:50:19;97483.84;;;20.09;nan
21869;BME280;11099;41.564;23.296;2023-10-19T12:52:49;97499.50;;;20.63;nan
21869;BME280;11099;41.564;23.296;2023-10-19T12:55:16;97520.25;;;20.52;nan
21869;BME280;11099;41.564;23.296;2023-10-19T12:57:42;97510.22;;;20.52;nan
21869;BME280;11099;41.564;23.296;2023-10-19T13:00:08;97555.19;;;20.68;nan
21869;BME280;11099;41.564;23.296;2023-10-19T13:02:50;97526.28;;;20.42;nan
21869;BME280;11099;41.564;23.296;2023-10-19T13:05:17;97503.22;;;20.48;nan
21869;BME280;11099;41.564;23.296;2023-10-19T13:07:46;97504.72;;;20.45;nan
21869;BME280;11099;41.564;23.296;2023-10-19T13:10:11;97492.22;;;20.34;nan
21869;BME280;11099;41.564;23.296;2023-10-19T13:12:37;97536.09;;;20.53;nan
21869;BME280;11099;41.564;23.296;2023-10-19T13:15:06;97493.66;;;20.58;nan
21869;BME280;11099;41.564;23.296;2023-10-19T13:17:41;97538.84;;;20.98;nan
21869;BME280;11099;41.564;23.296;2023-10-19T13:20:08;97532.75;;;21.08;nan
21869;BME280;11099;41.564;23.296;2023-10-19T13:22:44;97509.69;;;20.77;nan
21869;BME280;11099;41.564;23.296;2023-10-19T13:25:11;97555.25;;;20.71;nan
21869;BME280;11099;41.564;23.296;2023-10-19T13:27:39;97534.09;;;20.84;nan
21869;BME280;11099;41.564;23.296;2023-10-19T13:30:08;97530.28;;;20.89;nan
21869;BME280;11099;41.564;23.296;2023-10-19T13:32:36;97495.78;;;20.78;nan